createdAt,value
2017-03-29T00:00:56.764Z,99.99
2017-03-29T00:01:56.742Z,99.99
2017-03-29T00:02:56.726Z,99.99
2017-03-29T00:03:56.715Z,99.99
2017-03-29T00:04:56.696Z,99.99
2017-03-29T00:05:56.682Z,99.99
2017-03-29T00:06:56.668Z,99.99
2017-03-29T00:07:56.650Z,99.99
2017-03-29T00:08:56.630Z,99.99
2017-03-29T00:09:56.616Z,99.99
2017-03-29T00:10:56.602Z,99.99
2017-03-29T00:11:56.587Z,99.99
2017-03-29T00:12:56.570Z,99.99
2017-03-29T00:13:56.551Z,99.99
2017-03-29T00:14:56.539Z,99.99
2017-03-29T00:15:56.524Z,99.99
2017-03-29T00:16:56.504Z,99.99
2017-03-29T00:17:56.490Z,99.99
2017-03-29T00:18:56.475Z,99.99
2017-03-29T00:19:56.460Z,99.99
2017-03-29T00:20:56.443Z,99.99
2017-03-29T00:21:56.428Z,99.99
2017-03-29T00:22:56.413Z,99.99
2017-03-29T00:23:56.397Z,99.99
2017-03-29T00:24:56.385Z,99.99
2017-03-29T00:25:56.367Z,99.99
2017-03-29T00:26:56.350Z,99.99
2017-03-29T00:27:56.335Z,99.99
2017-03-29T00:28:56.325Z,99.99
2017-03-29T00:29:56.302Z,99.99
2017-03-29T00:30:56.289Z,99.99
2017-03-29T00:31:56.274Z,99.99
2017-03-29T00:32:56.255Z,99.99
2017-03-29T00:33:56.241Z,99.99
2017-03-29T00:34:56.224Z,99.99
2017-03-29T00:35:56.213Z,99.99
2017-03-29T00:36:56.200Z,99.99
2017-03-29T00:37:56.184Z,99.99
2017-03-29T00:38:56.168Z,99.99
2017-03-29T00:39:56.153Z,99.99
2017-03-29T00:40:56.135Z,99.99
2017-03-29T00:41:56.119Z,99.99
2017-03-29T00:42:56.103Z,99.99
2017-03-29T00:43:56.091Z,99.99
2017-03-29T00:44:56.077Z,99.99
2017-03-29T00:45:56.061Z,99.99
2017-03-29T00:46:56.045Z,99.99
2017-03-29T00:47:56.030Z,99.99
2017-03-29T00:48:56.011Z,99.99
2017-03-29T00:49:55.996Z,99.99
2017-03-29T00:50:55.984Z,99.99
2017-03-29T00:51:55.971Z,99.99
2017-03-29T00:52:55.950Z,99.99
2017-03-29T00:53:55.939Z,99.99
2017-03-29T00:54:55.919Z,99.99
2017-03-29T00:55:55.911Z,99.99
2017-03-29T00:56:55.892Z,99.99
2017-03-29T00:57:55.878Z,99.99
2017-03-29T00:58:55.859Z,99.99
2017-03-29T00:59:55.843Z,99.99
2017-03-29T01:00:55.829Z,99.99
2017-03-29T01:01:55.813Z,99.99
2017-03-29T01:02:55.800Z,99.99
2017-03-29T01:03:55.783Z,99.99
2017-03-29T01:04:55.767Z,99.99
2017-03-29T01:05:55.756Z,99.99
2017-03-29T01:06:55.743Z,99.99
2017-03-29T01:07:55.720Z,99.99
2017-03-29T01:08:55.714Z,99.99
2017-03-29T01:09:55.721Z,99.99
2017-03-29T01:10:55.681Z,99.99
2017-03-29T01:11:55.663Z,99.99
2017-03-29T01:12:55.645Z,99.99
2017-03-29T01:13:55.633Z,99.99
2017-03-29T01:14:55.615Z,99.99
2017-03-29T01:15:55.600Z,99.99
2017-03-29T01:16:55.583Z,99.99
2017-03-29T01:17:55.570Z,99.99
2017-03-29T01:18:55.551Z,99.99
2017-03-29T01:19:55.534Z,99.99
2017-03-29T01:20:55.518Z,99.99
2017-03-29T01:21:55.504Z,99.99
2017-03-29T01:22:55.486Z,99.99
2017-03-29T01:23:55.169Z,99.99
2017-03-29T01:24:55.454Z,99.99
2017-03-29T01:25:55.437Z,99.99
2017-03-29T01:26:55.422Z,99.99
2017-03-29T01:27:55.411Z,99.99
2017-03-29T01:28:55.394Z,99.99
2017-03-29T01:29:55.378Z,99.99
2017-03-29T01:30:55.361Z,99.99
2017-03-29T01:31:55.349Z,99.99
2017-03-29T01:32:55.330Z,99.99
2017-03-29T01:33:55.313Z,99.99
2017-03-29T01:34:55.297Z,99.99
2017-03-29T01:35:55.280Z,99.99
2017-03-29T01:36:55.264Z,99.99
2017-03-29T01:37:55.247Z,99.99
2017-03-29T01:38:55.233Z,99.99
2017-03-29T01:39:55.219Z,99.99
2017-03-29T01:40:55.202Z,99.99
2017-03-29T01:41:55.187Z,99.99
2017-03-29T01:42:55.167Z,99.99
2017-03-29T01:43:55.154Z,99.99
2017-03-29T01:44:55.139Z,99.99
2017-03-29T01:45:55.125Z,99.99
2017-03-29T01:46:55.106Z,99.99
2017-03-29T01:47:55.091Z,99.99
2017-03-29T01:48:55.073Z,99.99
2017-03-29T01:49:55.060Z,99.99
2017-03-29T01:50:55.041Z,99.99
2017-03-29T01:51:55.029Z,99.99
2017-03-29T01:52:55.008Z,99.99
2017-03-29T01:53:54.999Z,99.99
2017-03-29T01:54:54.979Z,99.99
2017-03-29T01:55:54.966Z,99.99
2017-03-29T01:56:54.947Z,99.99
2017-03-29T01:57:54.938Z,99.99
2017-03-29T01:58:54.918Z,99.99
2017-03-29T01:59:54.900Z,99.99
2017-03-29T02:00:54.881Z,99.99
2017-03-29T02:01:54.865Z,99.99
2017-03-29T02:02:54.852Z,99.99
2017-03-29T02:03:54.837Z,99.99
2017-03-29T02:04:54.824Z,99.99
2017-03-29T02:05:54.803Z,99.99
2017-03-29T02:06:54.791Z,99.99
2017-03-29T02:07:54.775Z,99.99
2017-03-29T02:08:54.759Z,99.99
2017-03-29T02:09:54.743Z,99.99
2017-03-29T02:10:54.728Z,99.99
2017-03-29T02:11:54.411Z,99.99
2017-03-29T02:12:54.695Z,99.99
2017-03-29T02:13:54.685Z,99.99
2017-03-29T02:14:54.667Z,99.99
2017-03-29T02:15:54.646Z,99.99
2017-03-29T02:16:54.630Z,99.99
2017-03-29T02:17:54.619Z,99.99
2017-03-29T02:18:54.600Z,99.99
2017-03-29T02:19:54.585Z,99.99
2017-03-29T02:20:54.565Z,99.99
2017-03-29T02:21:54.551Z,99.99
2017-03-29T02:22:54.533Z,99.99
2017-03-29T02:23:54.516Z,99.99
2017-03-29T02:24:54.499Z,99.99
2017-03-29T02:25:54.183Z,99.99
2017-03-29T02:26:54.467Z,99.99
2017-03-29T02:27:54.452Z,99.99
2017-03-29T02:28:54.437Z,99.99
2017-03-29T02:29:54.415Z,99.99
2017-03-29T02:30:54.399Z,99.99
2017-03-29T02:31:54.383Z,99.99
2017-03-29T02:32:54.377Z,99.99
2017-03-29T02:33:54.357Z,99.99
2017-03-29T02:34:54.332Z,99.99
2017-03-29T02:35:54.317Z,99.99
2017-03-29T02:36:54.299Z,99.99
2017-03-29T02:37:54.283Z,99.99
2017-03-29T02:38:54.266Z,99.99
2017-03-29T02:39:54.249Z,99.99
2017-03-29T02:40:54.236Z,99.99
2017-03-29T02:41:54.220Z,99.99
2017-03-29T02:42:54.203Z,99.99
2017-03-29T02:43:54.187Z,99.99
2017-03-29T02:44:54.171Z,99.99
2017-03-29T02:45:54.155Z,99.99
2017-03-29T02:46:54.140Z,99.99
2017-03-29T02:47:54.125Z,99.99
2017-03-29T02:48:54.114Z,99.99
2017-03-29T02:49:54.132Z,99.99
2017-03-29T02:50:54.080Z,99.99
2017-03-29T02:51:54.063Z,99.99
2017-03-29T02:52:54.048Z,99.99
2017-03-29T02:53:54.033Z,99.99
2017-03-29T02:54:54.017Z,99.99
2017-03-29T02:55:53.999Z,99.99
2017-03-29T02:56:53.987Z,99.99
2017-03-29T02:57:53.971Z,99.99
2017-03-29T02:58:53.963Z,99.99
2017-03-29T02:59:53.941Z,99.99
2017-03-29T03:00:53.925Z,99.99
2017-03-29T03:01:53.908Z,99.99
2017-03-29T03:02:53.888Z,99.99
2017-03-29T03:03:53.876Z,99.99
2017-03-29T03:04:53.861Z,99.99
2017-03-29T03:05:53.843Z,99.99
2017-03-29T03:06:53.826Z,99.99
2017-03-29T03:07:53.813Z,99.99
2017-03-29T03:08:53.795Z,99.99
2017-03-29T03:09:53.781Z,99.99
2017-03-29T03:10:53.763Z,99.99
2017-03-29T03:11:53.750Z,99.99
2017-03-29T03:12:53.735Z,99.99
2017-03-29T03:13:53.716Z,99.99
2017-03-29T03:14:53.701Z,99.99
2017-03-29T03:15:53.688Z,99.99
2017-03-29T03:16:53.668Z,99.99
2017-03-29T03:17:53.657Z,99.99
2017-03-29T03:18:53.640Z,99.99
2017-03-29T03:19:53.623Z,99.99
2017-03-29T03:20:53.605Z,99.99
2017-03-29T03:21:53.589Z,99.99
2017-03-29T03:22:53.574Z,99.99
2017-03-29T03:23:53.560Z,99.99
2017-03-29T03:24:53.540Z,99.99
2017-03-29T03:25:53.527Z,99.99
2017-03-29T03:26:53.510Z,99.99
2017-03-29T03:27:53.495Z,99.99
2017-03-29T03:28:53.479Z,99.99
2017-03-29T03:29:53.460Z,99.99
2017-03-29T03:30:53.444Z,99.99
2017-03-29T03:31:53.435Z,99.99
2017-03-29T03:32:53.416Z,99.99
2017-03-29T03:33:53.399Z,99.99
2017-03-29T03:34:53.080Z,99.99
2017-03-29T03:35:53.366Z,99.99
2017-03-29T03:36:53.355Z,99.99
2017-03-29T03:37:53.332Z,99.99
2017-03-29T03:38:53.316Z,99.99
2017-03-29T03:39:53.306Z,99.99
2017-03-29T03:40:53.286Z,99.99
2017-03-29T03:41:53.272Z,99.99
2017-03-29T03:42:53.254Z,99.99
2017-03-29T03:43:53.239Z,99.99
2017-03-29T03:44:53.223Z,99.99
2017-03-29T03:45:53.206Z,99.99
2017-03-29T03:46:53.198Z,99.99
2017-03-29T03:47:53.175Z,99.99
2017-03-29T03:48:53.160Z,99.99
2017-03-29T03:49:53.144Z,99.99
2017-03-29T03:50:53.131Z,99.99
2017-03-29T03:51:53.116Z,99.99
2017-03-29T03:52:53.099Z,99.99
2017-03-29T03:53:53.082Z,99.99
2017-03-29T03:54:53.068Z,99.99
2017-03-29T03:55:53.050Z,99.99
2017-03-29T03:56:53.042Z,99.99
2017-03-29T03:57:53.019Z,99.99
2017-03-29T03:58:53.004Z,99.99
2017-03-29T03:59:52.987Z,99.99
2017-03-29T04:00:52.971Z,99.99
2017-03-29T04:01:52.656Z,99.99
2017-03-29T04:02:52.940Z,99.99
2017-03-29T04:03:52.925Z,99.99
2017-03-29T04:04:52.913Z,99.99
2017-03-29T04:05:52.894Z,99.99
2017-03-29T04:06:52.879Z,99.99
2017-03-29T04:07:52.862Z,99.99
2017-03-29T04:08:52.852Z,99.99
2017-03-29T04:09:52.829Z,99.99
2017-03-29T04:10:52.815Z,99.99
2017-03-29T04:11:52.800Z,99.99
2017-03-29T04:12:52.781Z,99.99
2017-03-29T04:13:52.767Z,99.99
2017-03-29T04:14:52.752Z,99.99
2017-03-29T04:15:52.735Z,99.99
2017-03-29T04:16:52.717Z,99.99
2017-03-29T04:17:52.701Z,99.99
2017-03-29T04:18:52.715Z,99.99
2017-03-29T04:19:52.670Z,99.99
2017-03-29T04:20:52.654Z,99.99
2017-03-29T04:21:52.639Z,99.99
2017-03-29T04:22:52.618Z,99.99
2017-03-29T04:23:52.604Z,99.99
2017-03-29T04:24:52.590Z,99.99
2017-03-29T04:25:52.571Z,99.99
2017-03-29T04:26:52.558Z,99.99
2017-03-29T04:27:52.543Z,99.99
2017-03-29T04:28:52.528Z,99.99
2017-03-29T04:29:52.512Z,99.99
2017-03-29T04:30:52.496Z,99.99
2017-03-29T04:31:52.479Z,99.99
2017-03-29T04:32:52.461Z,99.99
2017-03-29T04:33:52.447Z,99.99
2017-03-29T04:34:52.432Z,99.99
2017-03-29T04:35:52.418Z,99.99
2017-03-29T04:36:52.399Z,99.99
2017-03-29T04:37:52.407Z,99.99
2017-03-29T04:38:52.368Z,99.99
2017-03-29T04:39:52.351Z,99.99
2017-03-29T04:40:52.337Z,99.99
2017-03-29T04:41:52.320Z,99.99
2017-03-29T04:42:52.307Z,99.99
2017-03-29T04:43:51.986Z,99.99
2017-03-29T04:44:52.268Z,99.99
2017-03-29T04:45:52.254Z,99.99
2017-03-29T04:46:52.235Z,99.99
2017-03-29T04:47:52.218Z,99.99
2017-03-29T04:48:51.903Z,99.99
2017-03-29T04:49:52.185Z,99.99
2017-03-29T04:50:51.869Z,99.99
2017-03-29T04:51:51.853Z,99.99
2017-03-29T04:52:52.139Z,99.99
2017-03-29T04:53:52.121Z,99.99
2017-03-29T04:54:52.107Z,99.99
2017-03-29T04:55:52.088Z,99.99
2017-03-29T04:56:52.074Z,99.99
2017-03-29T04:57:52.059Z,99.99
2017-03-29T04:58:52.039Z,99.99
2017-03-29T04:59:52.023Z,99.99
2017-03-29T05:00:52.007Z,99.99
2017-03-29T05:01:51.994Z,99.99
2017-03-29T05:02:51.974Z,99.99
2017-03-29T05:03:51.960Z,99.99
2017-03-29T05:04:51.945Z,99.99
2017-03-29T05:05:51.927Z,99.99
2017-03-29T05:06:51.913Z,99.99
2017-03-29T05:07:51.899Z,99.99
2017-03-29T05:08:51.883Z,99.99
2017-03-29T05:09:51.864Z,99.99
2017-03-29T05:10:51.851Z,99.99
2017-03-29T05:11:51.833Z,99.99
2017-03-29T05:12:51.819Z,99.99
2017-03-29T05:13:51.805Z,99.99
2017-03-29T05:14:51.790Z,99.99
2017-03-29T05:15:51.772Z,99.99
2017-03-29T05:16:51.754Z,99.99
2017-03-29T05:17:51.741Z,99.99
2017-03-29T05:18:51.724Z,99.99
2017-03-29T05:19:51.711Z,99.99
2017-03-29T05:20:51.696Z,99.99
2017-03-29T05:21:51.682Z,99.99
2017-03-29T05:22:51.665Z,99.99
2017-03-29T05:23:51.651Z,99.99
2017-03-29T05:24:51.636Z,99.99
2017-03-29T05:25:51.623Z,99.99
2017-03-29T05:26:51.605Z,99.99
2017-03-29T05:27:51.592Z,99.99
2017-03-29T05:28:51.574Z,99.99
2017-03-29T05:29:51.563Z,99.99
2017-03-29T05:30:51.551Z,99.99
2017-03-29T05:31:51.557Z,99.99
2017-03-29T05:32:51.515Z,99.99
2017-03-29T05:33:51.503Z,99.99
2017-03-29T05:34:51.486Z,99.99
2017-03-29T05:35:51.472Z,99.99
2017-03-29T05:36:51.462Z,99.99
2017-03-29T05:37:51.440Z,99.99
2017-03-29T05:38:51.424Z,99.99
2017-03-29T05:39:51.411Z,99.99
2017-03-29T05:40:51.392Z,99.99
2017-03-29T05:41:51.373Z,99.99
2017-03-29T05:42:51.359Z,99.99
2017-03-29T05:43:51.342Z,99.99
2017-03-29T05:44:51.327Z,99.99
2017-03-29T05:45:51.313Z,99.99
2017-03-29T05:46:51.295Z,99.99
2017-03-29T05:47:51.279Z,99.99
2017-03-29T05:48:51.265Z,99.99
2017-03-29T05:49:51.246Z,99.99
2017-03-29T05:50:51.231Z,99.99
2017-03-29T05:51:51.418Z,99.99
2017-03-29T05:52:51.403Z,99.99
2017-03-29T05:53:51.188Z,99.99
2017-03-29T05:54:51.172Z,99.99
2017-03-29T05:55:51.152Z,99.99
2017-03-29T05:56:51.137Z,99.99
2017-03-29T05:57:51.123Z,99.99
2017-03-29T05:58:51.106Z,99.99
2017-03-29T05:59:51.088Z,99.99
2017-03-29T06:00:51.072Z,99.99
2017-03-29T06:01:51.059Z,99.99
2017-03-29T06:02:51.044Z,99.99
2017-03-29T06:03:51.026Z,99.99
2017-03-29T06:04:51.011Z,99.99
2017-03-29T06:05:50.997Z,99.99
2017-03-29T06:06:50.977Z,99.99
2017-03-29T06:07:50.964Z,99.99
2017-03-29T06:08:50.948Z,99.99
2017-03-29T06:09:50.936Z,99.99
2017-03-29T06:10:50.919Z,99.99
2017-03-29T06:11:50.902Z,99.99
2017-03-29T06:12:50.887Z,99.99
2017-03-29T06:13:50.873Z,99.99
2017-03-29T06:14:50.861Z,99.99
2017-03-29T06:15:50.838Z,99.99
2017-03-29T06:16:50.825Z,99.99
2017-03-29T06:17:50.811Z,99.99
2017-03-29T06:18:50.795Z,99.99
2017-03-29T06:19:50.777Z,99.99
2017-03-29T06:20:50.768Z,99.99
2017-03-29T06:21:50.747Z,99.99
2017-03-29T06:22:50.734Z,99.99
2017-03-29T06:23:50.718Z,99.99
2017-03-29T06:24:50.402Z,99.99
2017-03-29T06:25:50.687Z,99.99
2017-03-29T06:26:50.674Z,99.99
2017-03-29T06:27:50.861Z,99.99
2017-03-29T06:28:50.644Z,99.99
2017-03-29T06:29:50.630Z,99.99
2017-03-29T06:30:50.618Z,99.99
2017-03-29T06:31:50.602Z,99.99
2017-03-29T06:32:50.587Z,99.99
2017-03-29T06:33:50.570Z,99.99
2017-03-29T06:34:50.557Z,99.99
2017-03-29T06:35:50.547Z,99.99
2017-03-29T06:36:50.529Z,99.76
2017-03-29T06:37:50.514Z,99.38
2017-03-29T06:38:50.504Z,99.33
2017-03-29T06:39:50.486Z,98.44
2017-03-29T06:40:50.476Z,98.44
2017-03-29T06:41:50.459Z,98.39
2017-03-29T06:42:50.447Z,98.21
2017-03-29T06:43:50.435Z,98.49
2017-03-29T06:44:50.419Z,98.77
2017-03-29T06:45:50.403Z,98.3
2017-03-29T06:46:50.394Z,98.21
2017-03-29T06:47:50.377Z,98.16
2017-03-29T06:48:50.367Z,98.54
2017-03-29T06:49:50.352Z,97.97
2017-03-29T06:50:50.340Z,97.64
2017-03-29T06:51:50.325Z,97.83
2017-03-29T06:52:50.313Z,97.45
2017-03-29T06:53:50.302Z,97.26
2017-03-29T06:54:49.984Z,97.55
2017-03-29T06:55:50.277Z,97.74
2017-03-29T06:56:50.260Z,97.55
2017-03-29T06:57:50.248Z,97.6
2017-03-29T06:58:49.935Z,97.83
2017-03-29T06:59:50.225Z,97.6
2017-03-29T07:00:50.210Z,97.92
2017-03-29T07:01:50.200Z,98.02
2017-03-29T07:02:50.188Z,97.97
2017-03-29T07:04:03.689Z,97.55
2017-03-29T07:04:50.014Z,97.5
2017-03-29T07:05:50.153Z,98.07
2017-03-29T07:06:50.139Z,98.49
2017-03-29T07:07:50.133Z,98.63
2017-03-29T07:08:50.119Z,98.82
2017-03-29T07:09:50.105Z,99.11
2017-03-29T07:10:49.792Z,98.78
2017-03-29T07:11:50.079Z,99.06
2017-03-29T07:12:50.071Z,98.68
2017-03-29T07:13:50.060Z,98.59
2017-03-29T07:14:50.051Z,98.73
2017-03-29T07:15:50.033Z,98.16
2017-03-29T07:16:49.720Z,97.69
2017-03-29T07:17:50.013Z,98.21
2017-03-29T07:18:49.998Z,98.31
2017-03-29T07:19:49.986Z,98.4
2017-03-29T07:20:49.979Z,98.12
2017-03-29T07:21:49.966Z,98.35
2017-03-29T07:22:49.958Z,98.87
2017-03-29T07:23:49.641Z,99.06
2017-03-29T07:24:49.932Z,99.11
2017-03-29T07:25:49.922Z,99.11
2017-03-29T07:26:49.908Z,99.99
2017-03-29T07:27:49.899Z,99.86
2017-03-29T07:28:49.887Z,99.82
2017-03-29T07:29:49.876Z,99.99
2017-03-29T07:30:49.862Z,99.63
2017-03-29T07:31:49.851Z,99.99
2017-03-29T07:32:49.837Z,99.91
2017-03-29T07:33:49.827Z,99.72
2017-03-29T07:34:49.815Z,99.87
2017-03-29T07:38:49.765Z,98.92
2017-03-29T07:39:49.456Z,98.5
2017-03-29T07:40:49.746Z,98.4
2017-03-29T07:41:49.730Z,98.4
2017-03-29T07:42:49.720Z,98.4
2017-03-29T07:43:49.707Z,98.5
2017-03-29T07:44:49.900Z,98.31
2017-03-29T07:45:49.688Z,98.5
2017-03-29T07:46:49.672Z,98.59
2017-03-29T07:47:49.671Z,98.02
2017-03-29T07:48:49.651Z,98.02
2017-03-29T07:49:49.642Z,97.5
2017-03-29T07:50:49.630Z,97.88
2017-03-29T07:51:49.620Z,97.36
2017-03-29T07:52:49.609Z,97.27
2017-03-29T07:53:49.299Z,97.45
2017-03-29T07:54:49.589Z,97.22
2017-03-29T07:55:49.581Z,97.78
2017-03-29T07:56:49.567Z,97.92
2017-03-29T07:57:49.556Z,97.41
2017-03-29T07:58:49.545Z,98.16
2017-03-29T07:59:49.536Z,97.88
2017-03-29T08:00:49.531Z,97.88
2017-03-29T08:01:49.518Z,97.88
2017-03-29T08:02:49.505Z,97.78
2017-03-29T08:03:49.496Z,98.31
2017-03-29T08:04:49.484Z,98.16
2017-03-29T08:05:49.474Z,98.07
2017-03-29T08:06:49.165Z,98.5
2017-03-29T08:07:49.455Z,98.26
2017-03-29T08:08:49.445Z,98.45
2017-03-29T08:09:49.435Z,98.5
2017-03-29T08:10:49.632Z,98.12
2017-03-29T08:11:49.416Z,98.31
2017-03-29T08:12:49.406Z,98.02
2017-03-29T08:13:49.395Z,97.92
2017-03-29T08:14:49.593Z,98.17
2017-03-29T08:15:49.371Z,97.83
2017-03-29T08:16:49.365Z,97.6
2017-03-29T08:17:49.354Z,97.64
2017-03-29T08:18:49.344Z,97.5
2017-03-29T08:19:49.333Z,97.08
2017-03-29T08:20:49.325Z,97.13
2017-03-29T08:21:49.316Z,96.46
2017-03-29T08:22:49.307Z,96.55
2017-03-29T08:23:49.298Z,96.31
2017-03-29T08:24:49.290Z,96.08
2017-03-29T08:25:49.279Z,95.98
2017-03-29T08:26:49.270Z,95.89
2017-03-29T08:27:49.258Z,95.65
2017-03-29T08:28:49.250Z,96.08
2017-03-29T08:29:48.940Z,95.94
2017-03-29T08:30:49.236Z,95.79
2017-03-29T08:31:49.225Z,96.26
2017-03-29T08:32:49.214Z,96.12
2017-03-29T08:33:49.208Z,96.03
2017-03-29T08:34:49.197Z,96.12
2017-03-29T08:35:49.191Z,96.31
2017-03-29T08:36:49.182Z,96.26
2017-03-29T08:37:49.171Z,96.03
2017-03-29T08:38:49.161Z,96.74
2017-03-29T08:39:49.151Z,96.83
2017-03-29T08:40:49.141Z,96.74
2017-03-29T08:41:49.131Z,96.78
2017-03-29T08:42:49.123Z,97.12
2017-03-29T08:43:49.112Z,97.21
2017-03-29T08:44:49.107Z,97.4
2017-03-29T08:45:49.089Z,97.17
2017-03-29T08:46:49.086Z,96.97
2017-03-29T08:47:49.068Z,97.17
2017-03-29T08:48:49.057Z,97.36
2017-03-29T08:49:49.049Z,96.83
2017-03-29T08:50:49.038Z,96.69
2017-03-29T08:51:49.026Z,96.69
2017-03-29T08:52:49.016Z,97.02
2017-03-29T08:53:49.007Z,96.83
2017-03-29T08:54:48.993Z,96.88
2017-03-29T08:55:48.681Z,96.78
2017-03-29T08:56:48.973Z,97.02
2017-03-29T08:57:48.959Z,97.36
2017-03-29T08:58:48.648Z,97.4
2017-03-29T08:59:48.937Z,97.02
2017-03-29T09:00:48.625Z,97.02
2017-03-29T09:01:48.916Z,97.07
2017-03-29T09:02:48.906Z,96.74
2017-03-29T09:03:48.896Z,96.83
2017-03-29T09:04:48.882Z,96.88
2017-03-29T09:05:48.571Z,96.6
2017-03-29T09:06:48.863Z,95.94
2017-03-29T09:07:48.853Z,96.36
2017-03-29T09:08:48.840Z,96.26
2017-03-29T09:09:48.828Z,96.79
2017-03-29T09:10:48.520Z,96.5
2017-03-29T09:11:48.810Z,96.55
2017-03-29T09:12:48.796Z,96.73
2017-03-29T09:13:48.783Z,96.45
2017-03-29T09:14:48.775Z,96.78
2017-03-29T09:15:48.764Z,96.88
2017-03-29T09:16:48.754Z,96.78
2017-03-29T09:17:48.738Z,97.5
2017-03-29T09:18:48.730Z,97.21
2017-03-29T09:19:48.719Z,97.02
2017-03-29T09:20:48.709Z,97.02
2017-03-29T09:21:48.700Z,97.17
2017-03-29T09:22:48.682Z,97.21
2017-03-29T09:23:48.674Z,96.97
2017-03-29T09:24:48.358Z,97.16
2017-03-29T09:25:48.650Z,97.64
2017-03-29T09:26:48.333Z,97.92
2017-03-29T09:27:48.625Z,97.49
2017-03-29T09:28:48.612Z,97.97
2017-03-29T09:29:48.598Z,98.06
2017-03-29T09:30:48.587Z,98.06
2017-03-29T09:31:48.578Z,98.11
2017-03-29T09:32:48.566Z,98.21
2017-03-29T09:33:48.551Z,98.3
2017-03-29T09:34:48.540Z,98.11
2017-03-29T09:35:48.534Z,97.73
2017-03-29T09:36:48.520Z,97.78
2017-03-29T09:37:48.506Z,97.97
2017-03-29T09:38:48.492Z,97.97
2017-03-29T09:39:48.479Z,97.97
2017-03-29T09:40:48.471Z,97.97
2017-03-29T09:41:48.457Z,97.97
2017-03-29T09:42:48.443Z,97.73
2017-03-29T09:43:48.434Z,97.69
2017-03-29T09:44:48.426Z,97.73
2017-03-29T09:45:48.412Z,97.83
2017-03-29T09:46:48.399Z,97.87
2017-03-29T09:47:48.386Z,98.06
2017-03-29T09:48:48.374Z,98.06
2017-03-29T09:49:48.362Z,98.16
2017-03-29T09:50:48.347Z,97.92
2017-03-29T09:51:48.337Z,98.21
2017-03-29T09:52:48.323Z,98.3
2017-03-29T09:53:48.310Z,98.44
2017-03-29T09:54:48.298Z,98.06
2017-03-29T09:55:48.286Z,98.11
2017-03-29T09:56:48.273Z,98.16
2017-03-29T09:57:48.304Z,98.02
2017-03-29T09:58:48.246Z,97.45
2017-03-29T09:59:48.238Z,97.12
2017-03-29T10:00:48.223Z,97.22
2017-03-29T10:01:48.210Z,96.74
2017-03-29T10:02:48.204Z,96.41
2017-03-29T10:03:48.188Z,96.6
2017-03-29T10:04:48.176Z,96.5
2017-03-29T10:05:48.161Z,96.45
2017-03-29T10:06:48.152Z,96.64
2017-03-29T10:07:48.135Z,96.03
2017-03-29T10:08:48.125Z,96.36
2017-03-29T10:09:48.117Z,95.89
2017-03-29T10:10:48.107Z,95.36
2017-03-29T10:11:48.095Z,95.41
2017-03-29T10:12:48.084Z,95.27
2017-03-29T10:13:48.074Z,94.74
2017-03-29T10:14:48.066Z,94.74
2017-03-29T10:15:48.050Z,94.84
2017-03-29T10:16:48.043Z,94.6
2017-03-29T10:17:48.032Z,94.93
2017-03-29T10:18:48.021Z,94.74
2017-03-29T10:19:48.014Z,95.17
2017-03-29T10:20:48.002Z,95.03
2017-03-29T10:21:47.993Z,94.79
2017-03-29T10:22:47.984Z,94.98
2017-03-29T10:23:47.969Z,95.5
2017-03-29T10:24:47.964Z,95.55
2017-03-29T10:25:47.949Z,95.55
2017-03-29T10:26:47.942Z,96.12
2017-03-29T10:27:47.929Z,95.74
2017-03-29T10:28:47.916Z,95.79
2017-03-29T10:29:47.607Z,95.69
2017-03-29T10:30:47.898Z,95.7
2017-03-29T10:31:47.886Z,96.22
2017-03-29T10:32:47.873Z,96.08
2017-03-29T10:33:47.864Z,96.36
2017-03-29T10:34:47.855Z,96.17
2017-03-29T10:35:47.841Z,96.36
2017-03-29T10:36:47.827Z,96.41
2017-03-29T10:37:47.817Z,96.26
2017-03-29T10:38:47.804Z,96.5
2017-03-29T10:39:47.796Z,96.41
2017-03-29T10:40:47.783Z,96.45
2017-03-29T10:41:47.771Z,96.03
2017-03-29T10:42:47.761Z,95.84
2017-03-29T10:43:47.747Z,95.94
2017-03-29T10:44:47.738Z,95.94
2017-03-29T10:45:47.730Z,95.75
2017-03-29T10:46:47.718Z,95.79
2017-03-29T10:47:47.703Z,95.79
2017-03-29T10:48:47.691Z,95.65
2017-03-29T10:49:47.683Z,95.41
2017-03-29T10:50:47.675Z,95.32
2017-03-29T10:51:47.664Z,95.22
2017-03-29T10:52:47.658Z,95.17
2017-03-29T10:53:47.641Z,94.93
2017-03-29T10:54:47.635Z,95.79
2017-03-29T10:55:47.620Z,95.46
2017-03-29T10:56:47.614Z,95.65
2017-03-29T10:57:47.602Z,95.55
2017-03-29T10:58:47.591Z,95.41
2017-03-29T10:59:47.580Z,96.03
2017-03-29T11:00:47.568Z,95.79
2017-03-29T11:01:47.555Z,96.26
2017-03-29T11:02:47.545Z,96.69
2017-03-29T11:03:47.535Z,96.55
2017-03-29T11:04:47.523Z,96.55
2017-03-29T11:05:47.512Z,96.92
2017-03-29T11:06:47.500Z,97.3
2017-03-29T11:07:47.490Z,97.07
2017-03-29T11:08:47.473Z,97.49
2017-03-29T11:09:47.463Z,97.3
2017-03-29T11:10:47.450Z,97.4
2017-03-29T11:11:47.439Z,97.49
2017-03-29T11:12:47.427Z,97.83
2017-03-29T11:13:47.413Z,97.4
2017-03-29T11:14:47.401Z,97.64
2017-03-29T11:15:47.388Z,97.5
2017-03-29T11:16:47.376Z,96.98
2017-03-29T11:17:47.358Z,97.45
2017-03-29T11:18:47.351Z,96.6
2017-03-29T11:19:47.335Z,96.36
2017-03-29T11:20:47.325Z,96.69
2017-03-29T11:21:47.314Z,96.55
2017-03-29T11:22:47.300Z,96.17
2017-03-29T11:23:47.287Z,96.69
2017-03-29T11:24:47.277Z,96.41
2017-03-29T11:25:47.267Z,96.31
2017-03-29T11:26:47.253Z,96.45
2017-03-29T11:27:47.239Z,96.5
2017-03-29T11:28:47.231Z,96.08
2017-03-29T11:29:47.220Z,95.84
2017-03-29T11:30:47.209Z,95.98
2017-03-29T11:31:47.198Z,95.94
2017-03-29T11:32:47.186Z,95.89
2017-03-29T11:33:47.172Z,96.03
2017-03-29T11:34:47.163Z,95.6
2017-03-29T11:35:47.159Z,95.7
2017-03-29T11:36:47.139Z,95.75
2017-03-29T11:37:47.132Z,95.51
2017-03-29T11:38:47.120Z,95.7
2017-03-29T11:39:47.110Z,95.79
2017-03-29T11:40:47.099Z,95.65
2017-03-29T11:41:47.093Z,95.51
2017-03-29T11:42:47.075Z,95.36
2017-03-29T11:43:47.073Z,95.46
2017-03-29T11:44:47.056Z,95.51
2017-03-29T11:45:47.045Z,95.7
2017-03-29T11:46:47.033Z,95.7
2017-03-29T11:47:47.022Z,95.7
2017-03-29T11:48:47.008Z,95.7
2017-03-29T11:49:47.000Z,95.46
2017-03-29T11:50:46.991Z,95.55
2017-03-29T11:51:46.974Z,95.36
2017-03-29T11:52:46.967Z,95.7
2017-03-29T11:53:46.954Z,95.55
2017-03-29T11:54:46.947Z,95.03
2017-03-29T11:55:46.933Z,95.36
2017-03-29T11:56:46.920Z,95.03
2017-03-29T11:57:46.910Z,95.22
2017-03-29T11:58:46.597Z,95.27
2017-03-29T11:59:46.892Z,95.17
2017-03-29T12:00:46.879Z,95.17
2017-03-29T12:01:46.867Z,94.98
2017-03-29T12:02:46.556Z,94.79
2017-03-29T12:03:46.845Z,95.36
2017-03-29T12:04:46.839Z,94.56
2017-03-29T12:05:46.832Z,95.03
2017-03-29T12:06:46.516Z,94.7
2017-03-29T12:07:46.806Z,94.93
2017-03-29T12:08:46.793Z,94.98
2017-03-29T12:09:46.782Z,95.17
2017-03-29T12:10:46.774Z,94.79
2017-03-29T12:11:46.766Z,94.89
2017-03-29T12:12:46.757Z,95.46
2017-03-29T12:13:46.744Z,95.55
2017-03-29T12:14:46.734Z,95.55
2017-03-29T12:15:46.720Z,95.55
2017-03-29T12:16:46.717Z,95.6
2017-03-29T12:17:46.700Z,95.17
2017-03-29T12:18:46.688Z,95.32
2017-03-29T12:19:46.678Z,95.36
2017-03-29T12:20:46.365Z,94.93
2017-03-29T12:21:46.363Z,94.84
2017-03-29T12:22:46.647Z,95.12
2017-03-29T12:23:46.330Z,95.32
2017-03-29T12:24:46.621Z,94.6
2017-03-29T12:25:46.613Z,94.89
2017-03-29T12:26:46.600Z,94.7
2017-03-29T12:27:46.590Z,94.7
2017-03-29T12:28:46.581Z,94.79
2017-03-29T12:29:46.573Z,94.08
2017-03-29T12:30:46.560Z,94.42
2017-03-29T12:31:46.555Z,94.27
2017-03-29T12:32:46.541Z,94.18
2017-03-29T12:33:46.532Z,94.32
2017-03-29T12:34:46.525Z,94.42
2017-03-29T12:35:46.511Z,94.37
2017-03-29T12:36:46.502Z,94.7
2017-03-29T12:37:46.521Z,94.46
2017-03-29T12:38:46.481Z,94.84
2017-03-29T12:39:46.474Z,93.89
2017-03-29T12:40:46.470Z,93.79
2017-03-29T12:41:46.458Z,93.46
2017-03-29T12:42:46.447Z,93.65
2017-03-29T12:43:46.439Z,93.6
2017-03-29T12:44:46.431Z,93.55
2017-03-29T12:45:46.427Z,93.22
2017-03-29T12:46:46.414Z,93.46
2017-03-29T12:47:46.402Z,93.08
2017-03-29T12:48:46.395Z,93.13
2017-03-29T12:49:46.387Z,93.37
2017-03-29T12:50:46.378Z,93.56
2017-03-29T12:51:46.374Z,93.6
2017-03-29T12:52:46.358Z,93.51
2017-03-29T12:53:46.354Z,93.65
2017-03-29T12:54:46.337Z,93.75
2017-03-29T12:55:46.330Z,93.41
2017-03-29T12:56:46.320Z,93.6
2017-03-29T12:57:46.311Z,93.41